Latest Weather Observations for Wulungurru (Kintore)

IDD60801

Issued at 9:31 pm CST Sunday 1 March 2015 (issued every 30 minutes, with the page automatically refreshed every 10 minutes)

About weather observations | Map of weather stations | Latest weather observations for NT | Other Formats
Station Details ID: 015664 Name: WALUNGURRU AIRPORT Lat: -23.27 Lon: 129.38 Height: 454.3 m
Data from the previous 72 hours. | See also: Recent months at Wulungurru (Kintore)
Date/Time
CST
Temp
°C
App
Temp
°C
Dew
Point
Rel
Hum
%
Delta-T
°C
Wind Press
QNH
hPa
Press
MSL
hPa
Rain
since 9 am
mm
Dir
 
Spd
km/h
Gust
km/h
Spd
kts
Gust
kts
01/09:30pm 34.1 34.6 15.1 32 12.0 SSW 6 7 3 4 1007.7 - 0.0
01/09:00pm 35.1 34.8 13.3 27 13.5 ESE 7 9 4 5 1007.4 1004.4 0.0
01/08:30pm 34.8 35.2 15.2 31 12.5 ESE 7 9 4 5 1006.9 - 0.0
01/08:00pm 35.7 35.0 13.2 26 14.0 E 9 11 5 6 1006.5 - 0.0
01/07:30pm 36.9 36.7 13.0 24 14.8 N 6 9 3 5 1006.1 - 0.0
01/07:00pm 37.8 36.2 11.7 21 15.9 NNW 11 13 6 7 1006.0 - 0.0
01/06:30pm 37.9 38.5 11.8 21 16.0 CALM 0 0 0 0 1006.1 - 0.0
01/06:00pm 38.1 38.0 12.0 21 16.1 S 4 7 2 4 1006.0 1003.0 0.0
01/05:30pm 38.7 37.5 11.7 20 16.5 ESE 9 13 5 7 1005.9 - 0.0
01/05:00pm 39.2 37.5 11.3 19 17.0 ENE 11 20 6 11 1006.0 - 0.0
01/04:30pm 38.4 36.8 11.5 20 16.4 N 11 22 6 12 1006.2 - 0.0
01/04:00pm 39.3 38.3 12.2 20 16.8 SE 9 15 5 8 1006.4 - 0.0
01/03:30pm 39.2 38.7 12.1 20 16.7 SE 6 13 3 7 1006.8 - 0.0
01/03:00pm 39.1 36.5 12.0 20 16.7 NE 17 26 9 14 1007.2 1004.2 0.0
01/02:30pm 39.2 38.3 13.6 22 16.1 NE 11 22 6 12 1007.7 - 0.0
01/02:00pm 38.6 35.7 12.4 21 16.2 NE 19 26 10 14 1008.2 - 0.0
01/01:30pm 37.9 35.9 13.8 23 15.2 E 17 30 9 16 1008.7 - 0.0
01/01:00pm 37.2 34.8 12.6 23 15.2 NE 17 33 9 18 1009.0 - 0.0
01/12:30pm 37.5 35.4 14.7 25 14.5 E 19 33 10 18 1009.3 - 0.0
01/12:00pm 36.4 33.8 15.0 28 13.6 ENE 22 32 12 17 1009.9 1006.9 0.0
01/11:30am 36.0 34.5 16.2 31 12.8 E 19 28 10 15 1010.1 - 0.0
01/11:00am 34.2 31.1 15.6 32 11.9 E 26 35 14 19 1010.2 - 0.0
01/10:30am 33.6 31.8 16.9 37 10.8 ESE 22 33 12 18 1010.4 - 0.0
01/10:00am 32.6 30.9 17.2 39 10.0 ESE 22 28 12 15 1010.7 - 0.0
01/09:30am 31.5 29.3 17.8 44 8.9 E 26 37 14 20 1010.8 - 0.0
01/09:00am 30.0 28.8 18.4 49 7.6 ESE 22 33 12 18 1010.5 1007.5 2.8
01/08:30am 28.3 27.1 19.2 57 6.0 SE 24 33 13 18 1010.2 - 2.8
01/08:00am 26.9 26.5 19.3 63 5.0 SE 20 30 11 16 1010.0 - 2.8
01/07:30am 26.3 26.1 19.4 66 4.5 SE 19 24 10 13 1009.9 - 2.8
01/07:00am 25.1 27.0 19.7 72 3.5 S 9 22 5 12 1009.5 - 2.8
01/06:30am 25.0 26.5 19.8 73 3.4 SSE 11 22 6 12 1009.5 - 2.8
01/06:00am 25.4 25.5 20.0 72 3.6 SSE 19 28 10 15 1008.7 1005.7 2.8
01/05:30am 25.3 24.9 20.1 73 3.4 SE 22 32 12 17 1008.5 - 2.8
01/05:00am 25.6 24.7 19.9 70 3.8 SSE 24 35 13 19 1008.1 - 2.8
01/04:30am 25.7 26.2 20.0 71 3.8 SE 17 26 9 14 1008.1 - 2.8
01/04:00am 25.9 26.4 20.0 70 3.9 ESE 17 24 9 13 1008.3 - 2.8
01/03:30am 25.8 27.2 20.4 72 3.6 SSE 13 20 7 11 1008.4 - 2.8
01/03:00am 25.8 25.2 20.6 73 3.5 SSE 24 35 13 19 1008.1 1005.1 2.8
01/02:30am 25.7 24.9 20.9 75 3.2 SE 26 35 14 19 1008.1 - 2.8
01/02:00am 25.5 25.3 21.2 77 2.9 SSE 24 33 13 18 1008.7 - 2.8
01/01:30am 25.7 25.0 21.1 76 3.1 SE 26 33 14 18 1009.5 - 2.8
01/01:00am 25.8 26.1 21.5 77 2.9 SSE 22 33 12 18 1010.3 - 2.8
01/12:30am 25.9 26.4 21.1 75 3.2 SE 20 32 11 17 1010.5 - 2.8
01/12:00am 25.6 27.2 21.5 78 2.8 SSE 15 20 8 11 1010.5 1007.5 2.8
 
Date/Time
CST
Temp
°C
App
Temp
°C
Dew
Point
Rel
Hum
%
Delta-T
°C
Wind Press
QNH
hPa
Press
MSL
hPa
Rain
since 9 am
mm
Dir
 
Spd
km/h
Gust
km/h
Spd
kts
Gust
kts
28/11:30pm 25.6 26.2 21.3 77 2.9 SSE 20 30 11 16 1010.3 - 2.8
28/11:00pm 26.2 26.1 20.7 71 3.7 SSE 22 32 12 17 1009.7 - 2.8
28/10:30pm 26.6 26.6 20.9 71 3.8 SSE 22 32 12 17 1009.7 - 2.8
28/10:00pm 26.9 28.0 21.2 71 3.8 S 17 22 9 12 1010.2 - 2.8
28/09:30pm 27.0 29.3 21.3 71 3.8 SSE 11 17 6 9 1009.7 - 2.8
28/09:00pm 27.3 29.4 20.9 68 4.3 SSE 11 17 6 9 1009.9 1006.4 2.8
28/08:30pm 28.0 29.0 20.3 63 5.1 S 15 22 8 12 1009.7 - 2.8
28/08:00pm 28.8 29.4 21.0 62 5.3 SW 19 22 10 12 1009.6 - 2.8
28/07:30pm 28.9 29.2 20.4 60 5.7 S 19 24 10 13 1008.8 - 2.6
28/07:00pm 29.4 30.1 20.5 58 6.0 SE 17 22 9 12 1008.6 - 2.6
28/06:30pm 29.7 30.0 20.5 57 6.2 SSE 19 24 10 13 1008.0 - 2.6
28/06:12pm 30.2 28.7 21.0 58 6.2 S 30 41 16 22 1007.5 - 2.6
28/06:00pm 30.4 33.8 23.3 66 5.0 SSW 11 19 6 10 1006.8 1003.4 2.6
28/05:30pm 29.5 32.8 23.9 72 3.9 SSW 13 17 7 9 1005.9 - 2.6
28/05:00pm 26.5 26.6 22.6 79 2.7 SSW 26 30 14 16 1006.0 - 2.6
28/04:30pm 25.7 22.5 21.1 76 3.1 SSW 39 67 21 36 1006.8 - 0.8
28/04:28pm 26.3 23.0 20.8 71 3.7 SSW 39 67 21 36 1007.0 - 0.4
28/04:21pm 30.7 25.8 19.4 51 7.5 WSW 44 67 24 36 1006.3 - 0.0
28/04:09pm 34.5 30.7 17.3 36 11.2 S 33 61 18 33 1005.7 - 0.0
28/04:00pm 39.3 37.4 16.8 26 14.8 SW 22 28 12 15 1005.7 - 0.0
28/03:30pm 39.9 38.7 16.1 24 15.5 W 17 28 9 15 1005.8 - 0.0
28/03:00pm 40.4 39.1 15.9 23 16.0 WNW 17 26 9 14 1006.2 1002.7 0.0
28/02:30pm 39.7 40.6 16.0 25 15.4 NE 6 13 3 7 1006.2 - 0.0
28/02:00pm 40.7 41.2 17.4 25 15.5 SSW 11 20 6 11 1006.7 - 0.0
28/01:30pm 38.8 39.1 17.0 27 14.4 W 11 20 6 11 1007.3 - 0.0
28/01:00pm 38.7 37.7 17.5 29 14.0 SE 19 22 10 12 1007.8 - 0.0
28/12:30pm 37.6 38.2 17.6 31 13.2 NNW 11 20 6 11 1008.4 - 0.0
28/12:00pm 37.3 37.6 17.8 31 12.9 WSW 13 28 7 15 1009.1 1005.7 0.0
28/11:30am 36.6 36.3 18.2 34 12.2 NW 17 24 9 13 1009.7 - 0.0
28/11:00am 35.3 36.2 17.5 34 11.7 NW 9 17 5 9 1010.1 - 0.0
28/10:00am 34.6 34.9 17.8 37 11.0 NW 13 22 7 12 1010.5 - 0.0
28/09:30am 33.1 32.6 16.9 38 10.5 NNW 15 19 8 10 1010.3 - 0.0
28/09:00am 31.9 30.7 17.0 41 9.6 N 19 24 10 13 1010.4 1007.0 0.0
28/08:30am 32.0 33.3 17.1 41 9.6 E 6 22 3 12 1009.8 - 0.0
28/08:00am 31.4 31.8 16.2 40 9.7 S 9 15 5 8 1008.9 - 0.0
28/07:30am 30.9 31.1 15.7 39 9.6 S 9 17 5 9 1008.5 - 0.0
28/07:00am 30.1 29.6 15.8 42 9.0 S 13 17 7 9 1007.9 - 0.0
28/06:30am 29.5 28.6 14.9 41 9.1 SSW 13 19 7 10 1007.6 - 0.0
28/06:00am 29.1 28.3 15.2 42 8.7 SW 13 17 7 9 1007.3 1003.8 0.0
28/05:30am 29.6 28.8 16.1 44 8.5 SW 15 22 8 12 1006.8 - 0.0
28/05:00am 28.6 27.8 17.2 50 7.3 WSW 17 19 9 10 1006.8 - 0.0
28/04:30am 29.3 28.1 17.5 49 7.6 WSW 20 28 11 15 1006.4 - 0.0
28/04:00am 29.3 29.7 17.2 48 7.8 WSW 11 15 6 8 1006.3 - 0.0
28/03:30am 29.9 30.6 17.0 45 8.3 S 9 11 5 6 1006.3 - 0.0
28/03:00am 30.7 30.2 17.0 43 8.8 SW 15 20 8 11 1006.4 1003.0 0.0
28/02:30am 30.6 30.3 17.3 45 8.6 SW 15 19 8 10 1006.6 - 0.0
28/02:00am 30.9 30.5 17.2 43 8.8 SW 15 17 8 9 1006.9 - 0.0
28/01:30am 30.9 31.2 16.9 43 9.0 SW 11 15 6 8 1007.5 - 0.0
28/01:00am 31.7 31.8 16.4 39 9.8 WSW 11 15 6 8 1007.8 - 0.0
28/12:30am 32.3 31.9 16.2 38 10.3 SW 13 17 7 9 1007.9 - 0.0
28/12:00am 32.3 31.9 16.2 38 10.3 SW 13 17 7 9 1008.1 1004.6 0.0
 
Date/Time
CST
Temp
°C
App
Temp
°C
Dew
Point
Rel
Hum
%
Delta-T
°C
Wind Press
QNH
hPa
Press
MSL
hPa
Rain
since 9 am
mm
Dir
 
Spd
km/h
Gust
km/h
Spd
kts
Gust
kts
27/11:30pm 31.9 31.9 16.2 38 10.0 WSW 11 15 6 8 1008.1 - 0.0
27/11:00pm 32.2 31.9 16.5 39 10.1 SW 13 15 7 8 1008.1 - 0.0
27/10:30pm 32.3 32.6 17.0 40 9.9 WSW 11 15 6 8 1007.7 - 0.0
27/10:00pm 32.5 32.7 16.8 39 10.1 SW 11 13 6 7 1007.4 - 0.0
27/09:30pm 32.5 32.7 16.8 39 10.1 WSW 11 15 6 8 1007.2 - 0.0
27/09:00pm 33.2 33.1 16.1 35 11.0 SW 11 11 6 6 1006.7 1003.3 0.0
27/08:30pm 34.5 34.0 15.9 33 11.9 SW 13 17 7 9 1006.4 - 0.0
27/08:00pm 35.6 34.7 15.9 31 12.7 SW 15 20 8 11 1005.9 - 0.0
27/07:30pm 36.1 36.3 15.8 30 13.0 WSW 9 13 5 7 1005.5 - 0.0
27/07:00pm 37.6 36.7 14.8 25 14.5 WNW 13 20 7 11 1005.4 - 0.0
27/06:30pm 38.8 38.0 15.2 24 15.2 WNW 13 19 7 10 1005.5 - 0.0
27/06:00pm 39.4 38.1 15.7 24 15.4 W 17 22 9 12 1005.3 1001.8 0.0
27/05:30pm 39.6 37.9 14.6 23 16.0 WSW 17 20 9 11 1005.4 - 0.0
27/05:00pm 39.4 38.2 15.1 24 15.6 SW 15 24 8 13 1005.4 - 0.0
27/04:30pm 39.6 37.7 15.2 23 15.7 NW 19 30 10 16 1005.4 - 0.0
27/04:00pm 39.9 38.2 14.8 22 16.1 WNW 17 33 9 18 1005.8 - 0.0
27/03:30pm 40.7 39.9 16.2 24 16.0 WNW 15 26 8 14 1006.1 - 0.0
27/03:00pm 40.1 39.5 15.7 24 15.9 W 13 30 7 16 1006.5 1003.1 0.0
27/02:30pm 39.2 37.4 15.5 24 15.3 W 19 30 10 16 1007.0 - 0.0
27/02:00pm 38.2 38.2 15.3 25 14.7 SSE 9 32 5 17 1007.3 - 0.0
27/01:30pm 38.5 36.8 16.2 27 14.5 SW 20 32 11 17 1007.8 - 0.0
27/01:00pm 38.6 37.3 16.8 27 14.3 SW 19 30 10 16 1008.3 - 0.0
27/12:30pm 37.6 36.6 16.5 28 13.8 SW 17 28 9 15 1008.8 - 0.0
27/12:00pm 36.9 35.5 18.0 33 12.6 SW 22 33 12 18 1009.5 1006.0 0.0
27/11:30am 35.4 32.7 17.6 35 11.7 SSW 28 37 15 20 1009.8 - 0.0
27/11:00am 34.6 32.2 18.2 37 10.8 SSW 28 37 15 20 1010.3 - 0.0
27/10:30am 33.9 31.9 19.2 42 9.8 SW 28 41 15 22 1010.5 - 0.0
27/10:00am 31.9 29.2 19.2 47 8.4 SW 32 43 17 23 1010.7 - 0.0
27/09:30am 30.3 28.1 19.6 52 7.1 SW 30 41 16 22 1010.6 - 0.0
27/09:00am 30.3 28.4 19.3 51 7.3 SW 28 43 15 23 1010.4 1007.0 0.0
27/08:30am 29.8 29.2 19.8 55 6.7 WSW 22 32 12 17 1010.0 - 0.0
27/08:00am 28.6 28.8 20.1 60 5.7 WSW 19 26 10 14 1009.7 - 0.0
27/07:30am 28.2 27.6 19.7 60 5.6 WSW 22 30 12 16 1009.2 - 0.0
27/07:00am 27.3 28.6 19.4 62 5.2 WSW 11 15 6 8 1009.0 - 0.0
27/06:30am 27.1 27.8 19.7 64 4.9 W 15 20 8 11 1008.6 - 0.0
27/06:00am 26.8 30.2 20.2 67 4.4 SW 2 11 1 6 1007.7 1004.2 0.0
27/05:30am 26.2 28.4 19.6 67 4.3 SW 7 9 4 5 1007.0 - 0.0
27/05:00am 26.4 29.9 19.5 66 4.5 CALM 0 9 0 5 1006.7 - 0.0
27/04:30am 27.6 30.8 19.7 62 5.2 WNW 2 7 1 4 1006.3 - 0.0
27/04:00am 27.3 29.6 18.6 59 5.7 NNE 4 7 2 4 1006.2 - 0.0
27/03:30am 28.5 29.7 18.3 54 6.6 N 9 13 5 7 1006.3 - 0.0
27/03:00am 29.3 30.9 17.8 50 7.5 SW 6 9 3 5 1006.3 1002.9 0.0
27/02:30am 30.0 29.9 17.8 48 7.9 SSE 15 19 8 10 1006.5 - 0.0
27/02:00am 30.5 29.9 17.6 46 8.4 SSE 17 20 9 11 1006.7 - 0.0
27/01:30am 30.5 30.5 17.2 44 8.6 SSE 13 19 7 10 1006.9 - 0.0
27/01:00am 30.4 30.2 17.5 46 8.3 SSE 15 19 8 10 1007.3 - 0.0
27/12:30am 30.7 29.6 17.4 45 8.6 SSE 19 22 10 12 1007.7 - 0.0
27/12:00am 30.2 31.1 17.6 46 8.2 ESE 9 13 5 7 1008.0 1004.5 0.0
 
Date/Time
CST
Temp
°C
App
Temp
°C
Dew
Point
Rel
Hum
%
Delta-T
°C
Wind Press
QNH
hPa
Press
MSL
hPa
Rain
since 9 am
mm
Dir
 
Spd
km/h
Gust
km/h
Spd
kts
Gust
kts
26/11:30pm 30.0 31.6 17.8 48 7.9 SSW 6 9 3 5 1008.1 - 0.0
26/11:00pm 30.5 32.1 18.2 47 8.0 S 7 13 4 7 1008.5 - 0.0
26/10:30pm 30.9 30.2 18.3 47 8.3 SSE 19 30 10 16 1008.2 - 0.0
26/10:00pm 31.9 31.8 17.0 41 9.6 S 13 19 7 10 1008.0 - 0.0

Other Formats:

Comma delimited format used in spreadsheet applications
http://www.bom.gov.au/fwo/IDD60801/IDD60801.94321.axf

JavaScript Object Notation format (JSON) in row-major order
http://www.bom.gov.au/fwo/IDD60801/IDD60801.94321.json